createdAt,value
2023-01-13T00:01:29.400Z,9.06
2023-01-13T00:04:00.536Z,9.02
2023-01-13T00:06:29.752Z,9.21
2023-01-13T00:08:59.147Z,9.02
2023-01-13T00:11:28.173Z,9.07
2023-01-13T00:13:56.474Z,9.17
2023-01-13T00:16:24.406Z,9.07
2023-01-13T00:18:52.754Z,9.22
2023-01-13T00:21:23.663Z,8.89
2023-01-13T00:23:54.911Z,8.79
2023-01-13T00:26:26.271Z,8.78
2023-01-13T00:28:59.415Z,8.77
2023-01-13T00:31:29.291Z,9.02
2023-01-13T00:33:59.388Z,8.53
2023-01-13T00:36:28.144Z,8.70
2023-01-13T00:38:56.942Z,8.96
2023-01-13T00:41:26.427Z,8.81
2023-01-13T00:43:54.816Z,8.79
2023-01-13T00:46:23.182Z,8.78
2023-01-13T00:48:51.936Z,8.68
2023-01-13T00:51:21.635Z,8.59
2023-01-13T00:53:51.934Z,8.70
2023-01-13T00:56:38.481Z,8.54
2023-01-13T00:59:13.611Z,8.67
2023-01-13T01:01:42.343Z,8.39
2023-01-13T01:04:11.683Z,8.53
2023-01-13T01:06:39.581Z,8.68
2023-01-13T01:09:07.761Z,8.28
2023-01-13T01:11:35.742Z,8.36
2023-01-13T01:14:04.671Z,8.18
2023-01-13T01:16:34.211Z,8.31
2023-01-13T01:19:04.862Z,8.21
2023-01-13T01:21:33.371Z,8.41
2023-01-13T01:24:04.478Z,8.35
2023-01-13T01:26:32.454Z,8.39
2023-01-13T01:29:02.575Z,8.49
2023-01-13T01:31:33.753Z,8.53
2023-01-13T01:34:02.624Z,8.83
2023-01-13T01:36:31.054Z,8.61
2023-01-13T01:39:00.388Z,8.65
2023-01-13T01:41:32.589Z,8.64
2023-01-13T01:44:41.954Z,8.97
2023-01-13T01:47:14.386Z,8.93
2023-01-13T01:49:45.090Z,8.72
2023-01-13T01:52:19.993Z,8.62
2023-01-13T01:54:55.549Z,8.58
2023-01-13T01:57:29.758Z,8.63
2023-01-13T02:00:01.277Z,8.52
2023-01-13T02:02:41.464Z,8.80
2023-01-13T02:05:10.640Z,8.68
2023-01-13T02:07:41.903Z,8.63
2023-01-13T02:10:14.116Z,8.66
2023-01-13T02:12:44.991Z,8.78
2023-01-13T02:15:44.119Z,8.90
2023-01-13T02:18:16.959Z,9.03
2023-01-13T02:20:52.966Z,8.89
2023-01-13T02:23:45.536Z,9.07
2023-01-13T02:26:47.880Z,8.96
2023-01-13T02:29:40.888Z,8.99
2023-01-13T02:32:27.949Z,8.93
2023-01-13T02:35:29.948Z,8.90
2023-01-13T02:38:01.147Z,8.89
2023-01-13T02:40:32.247Z,8.84
2023-01-13T02:43:29.381Z,9.03
2023-01-13T02:46:22.439Z,8.77
2023-01-13T02:48:54.666Z,8.65
2023-01-13T02:51:27.550Z,8.72
2023-01-13T02:54:05.646Z,8.84
2023-01-13T02:56:40.839Z,8.70
2023-01-13T02:59:12.495Z,8.72
2023-01-13T03:01:42.979Z,8.75
2023-01-13T03:04:34.922Z,8.67
2023-01-13T03:07:28.092Z,8.44
2023-01-13T03:10:22.211Z,8.52
2023-01-13T03:13:19.152Z,8.59
2023-01-13T03:16:11.914Z,8.49
2023-01-13T03:18:58.713Z,8.65
2023-01-13T03:22:02.387Z,8.62
2023-01-13T03:24:40.161Z,8.64
2023-01-13T03:27:13.220Z,8.59
2023-01-13T03:29:55.921Z,8.55
2023-01-13T03:32:58.361Z,8.32
2023-01-13T03:35:31.420Z,8.37
2023-01-13T03:38:13.940Z,8.44
2023-01-13T03:40:52.043Z,8.31
2023-01-13T03:43:55.293Z,8.26
2023-01-13T03:46:33.378Z,8.55
2023-01-13T03:49:03.762Z,8.33
2023-01-13T03:51:34.919Z,8.12
2023-01-13T03:54:09.521Z,8.24
2023-01-13T03:56:46.182Z,7.90
2023-01-13T03:59:20.754Z,7.99
2023-01-13T04:01:54.630Z,8.02
2023-01-13T04:04:36.331Z,7.99
2023-01-13T04:07:14.173Z,7.95
2023-01-13T04:09:53.712Z,7.83
2023-01-13T04:12:59.226Z,8.09
2023-01-13T04:15:39.635Z,8.17
2023-01-13T04:18:26.542Z,7.76
2023-01-13T04:20:57.749Z,7.85
2023-01-13T04:23:25.920Z,7.75
2023-01-13T04:25:54.970Z,7.80
2023-01-13T04:28:23.614Z,7.70
2023-01-13T04:30:51.823Z,7.83
2023-01-13T04:33:20.521Z,7.85
2023-01-13T04:35:50.162Z,7.85
2023-01-13T04:38:20.234Z,7.87
2023-01-13T04:40:48.497Z,8.01
2023-01-13T04:43:16.945Z,7.81
2023-01-13T04:45:45.436Z,7.89
2023-01-13T04:48:13.886Z,7.77
2023-01-13T04:50:42.127Z,7.73
2023-01-13T04:53:10.130Z,8.12
2023-01-13T04:55:38.650Z,7.76
2023-01-13T04:58:09.039Z,7.76
2023-01-13T05:00:38.185Z,7.65
2023-01-13T05:03:06.597Z,7.74
2023-01-13T05:05:34.902Z,7.71
2023-01-13T05:08:02.881Z,7.73
2023-01-13T05:10:31.150Z,7.97
2023-01-13T05:13:17.747Z,8.04
2023-01-13T05:16:06.816Z,7.61
2023-01-13T05:18:35.049Z,7.50
2023-01-13T05:21:04.460Z,7.54
2023-01-13T05:23:51.073Z,7.47
2023-01-13T05:26:19.443Z,7.28
2023-01-13T05:28:47.371Z,7.11
2023-01-13T05:31:15.839Z,7.22
2023-01-13T05:33:47.123Z,7.20
2023-01-13T05:36:15.461Z,7.37
2023-01-13T05:38:43.613Z,7.52
2023-01-13T05:41:30.275Z,7.43
2023-01-13T05:43:58.224Z,7.44
2023-01-13T05:46:26.545Z,7.40
2023-01-13T05:48:54.521Z,7.50
2023-01-13T05:51:26.661Z,7.55
2023-01-13T05:53:54.788Z,7.57
2023-01-13T05:56:23.031Z,7.69
2023-01-13T05:58:51.475Z,7.93
2023-01-13T06:01:19.818Z,7.82
2023-01-13T06:03:47.759Z,7.71
2023-01-13T06:06:16.022Z,7.83
2023-01-13T06:08:43.937Z,7.70
2023-01-13T06:11:12.200Z,7.70
2023-01-13T06:13:40.158Z,7.75
2023-01-13T06:16:09.312Z,7.94
2023-01-13T06:18:37.307Z,8.01
2023-01-13T06:21:05.724Z,7.48
2023-01-13T06:23:35.628Z,7.39
2023-01-13T06:26:12.651Z,7.55
2023-01-13T06:28:40.593Z,7.45
2023-01-13T06:31:10.951Z,7.54
2023-01-13T06:33:49.240Z,7.67
2023-01-13T06:36:22.630Z,7.73
2023-01-13T06:38:55.462Z,7.74
2023-01-13T06:41:44.840Z,7.84
2023-01-13T06:44:12.884Z,7.83
2023-01-13T06:46:41.180Z,7.91
2023-01-13T06:49:09.265Z,7.91
2023-01-13T06:51:37.590Z,7.72
2023-01-13T06:54:05.610Z,7.75
2023-01-13T06:56:33.851Z,7.84
2023-01-13T06:59:01.968Z,7.76
2023-01-13T07:01:30.842Z,7.85
2023-01-13T07:03:58.834Z,7.89
2023-01-13T07:06:27.099Z,7.94
2023-01-13T07:08:55.356Z,8.03
2023-01-13T07:11:23.634Z,7.79
2023-01-13T07:14:10.191Z,7.88
2023-01-13T07:16:38.570Z,7.83
2023-01-13T07:19:06.511Z,7.70
2023-01-13T07:21:34.891Z,7.59
2023-01-13T07:24:02.721Z,7.80
2023-01-13T07:26:31.041Z,7.82
2023-01-13T07:28:59.027Z,7.66
2023-01-13T07:31:28.483Z,7.64
2023-01-13T07:33:56.426Z,7.83
2023-01-13T07:36:24.761Z,7.96
2023-01-13T07:38:54.815Z,7.69
2023-01-13T07:41:42.184Z,7.78
2023-01-13T07:44:11.147Z,7.79
2023-01-13T07:46:40.997Z,7.98
2023-01-13T07:49:10.474Z,8.05
2023-01-13T07:51:40.046Z,8.05
2023-01-13T07:54:08.027Z,8.19
2023-01-13T07:56:37.362Z,8.34
2023-01-13T07:59:05.373Z,8.59
2023-01-13T08:01:34.406Z,8.47
2023-01-13T08:04:02.382Z,8.39
2023-01-13T08:06:30.641Z,8.47
2023-01-13T08:08:59.211Z,8.50
2023-01-13T08:11:27.522Z,8.44
2023-01-13T08:13:58.048Z,8.51
2023-01-13T08:16:26.480Z,8.71
2023-01-13T08:18:54.540Z,8.72
2023-01-13T08:21:22.872Z,8.60
2023-01-13T08:23:50.819Z,8.44
2023-01-13T08:26:19.236Z,8.49
2023-01-13T08:28:47.220Z,8.49
2023-01-13T08:31:17.216Z,8.50
2023-01-13T08:33:45.889Z,8.68
2023-01-13T08:36:14.284Z,8.68
2023-01-13T08:38:42.929Z,8.54
2023-01-13T08:41:13.955Z,8.34
2023-01-13T08:43:42.300Z,8.55
2023-01-13T08:46:10.722Z,8.73
2023-01-13T08:48:38.735Z,8.92
2023-01-13T08:51:09.100Z,9.06
2023-01-13T08:53:37.266Z,8.94
2023-01-13T08:56:13.390Z,9.00
2023-01-13T08:58:41.347Z,8.97
2023-01-13T09:01:15.752Z,9.20
2023-01-13T09:03:44.005Z,9.16
2023-01-13T09:06:12.284Z,9.05
2023-01-13T09:08:40.341Z,8.86
2023-01-13T09:11:37.080Z,8.96
2023-01-13T09:14:05.104Z,9.26
2023-01-13T09:16:33.384Z,9.24
2023-01-13T09:19:01.284Z,9.59
2023-01-13T09:21:29.666Z,9.52
2023-01-13T09:23:57.657Z,9.57
2023-01-13T09:26:25.964Z,9.37
2023-01-13T09:28:54.011Z,9.65
2023-01-13T09:31:22.325Z,9.84
2023-01-13T09:34:08.837Z,9.98
2023-01-13T09:36:37.160Z,9.79
2023-01-13T09:39:06.276Z,9.95
2023-01-13T09:42:00.604Z,10.00
2023-01-13T09:44:36.764Z,9.91
2023-01-13T09:47:15.123Z,10.05
2023-01-13T09:49:43.754Z,10.11
2023-01-13T09:52:19.981Z,9.84
2023-01-13T09:55:12.405Z,9.87
2023-01-13T09:57:40.803Z,9.63
2023-01-13T10:00:11.934Z,9.85
2023-01-13T10:03:19.497Z,9.72
2023-01-13T10:05:50.644Z,9.77
2023-01-13T10:08:30.040Z,9.69
2023-01-13T10:11:37.852Z,9.63
2023-01-13T10:14:18.509Z,9.82
2023-01-13T10:17:19.483Z,9.97
2023-01-13T10:20:08.516Z,9.76
2023-01-13T10:22:48.557Z,9.71
2023-01-13T10:25:24.895Z,9.77
2023-01-13T10:27:56.303Z,9.98
2023-01-13T10:30:36.008Z,9.92
2023-01-13T10:33:13.211Z,10.02
2023-01-13T10:35:49.648Z,10.27
2023-01-13T10:38:24.676Z,10.02
2023-01-13T10:40:54.917Z,10.11
2023-01-13T10:43:23.667Z,10.04
2023-01-13T10:46:01.570Z,9.67
2023-01-13T10:48:39.130Z,9.40
2023-01-13T10:51:39.675Z,9.62
2023-01-13T10:54:13.570Z,9.84
2023-01-13T10:56:45.101Z,9.84
2023-01-13T10:59:24.994Z,9.78
2023-01-13T11:02:25.236Z,10.07
2023-01-13T11:04:53.945Z,9.74
2023-01-13T11:07:35.839Z,9.96
2023-01-13T11:10:09.874Z,9.83
2023-01-13T11:13:15.353Z,9.77
2023-01-13T11:15:59.059Z,10.09
2023-01-13T11:18:27.576Z,9.61
2023-01-13T11:20:57.988Z,10.20
2023-01-13T11:23:37.724Z,10.04
2023-01-13T11:26:22.005Z,10.02
2023-01-13T11:29:00.248Z,10.13
2023-01-13T11:31:36.445Z,9.94
2023-01-13T11:34:15.187Z,10.38
2023-01-13T11:36:55.641Z,10.45
2023-01-13T11:39:34.015Z,10.17
2023-01-13T11:42:22.295Z,10.12
2023-01-13T11:45:05.327Z,10.38
2023-01-13T11:47:36.257Z,10.60
2023-01-13T11:50:15.548Z,10.79
2023-01-13T11:52:49.734Z,10.84
2023-01-13T11:55:40.425Z,10.68
2023-01-13T11:58:50.741Z,10.70
2023-01-13T12:01:25.669Z,10.60
2023-01-13T12:04:29.988Z,10.29
2023-01-13T12:07:01.166Z,10.57
2023-01-13T12:09:53.473Z,10.41
2023-01-13T12:12:35.195Z,10.71
2023-01-13T12:15:35.984Z,10.56
2023-01-13T12:18:07.320Z,10.79
2023-01-13T12:20:47.877Z,10.68
2023-01-13T12:23:26.809Z,10.78
2023-01-13T12:26:00.756Z,10.81
2023-01-13T12:28:43.194Z,10.60
2023-01-13T12:31:12.576Z,10.25
2023-01-13T12:34:01.483Z,10.37
2023-01-13T12:36:51.720Z,10.56
2023-01-13T12:39:52.757Z,10.68
2023-01-13T12:42:51.045Z,10.77
2023-01-13T12:45:24.713Z,10.88
2023-01-13T12:47:53.304Z,11.37
2023-01-13T12:50:24.935Z,11.29
2023-01-13T12:52:58.377Z,11.14
2023-01-13T12:55:32.764Z,10.94
2023-01-13T12:58:16.181Z,11.03
2023-01-13T13:00:45.712Z,11.33
2023-01-13T13:03:19.297Z,11.39
2023-01-13T13:06:06.547Z,11.67
2023-01-13T13:09:04.492Z,11.62
2023-01-13T13:11:58.398Z,11.60
2023-01-13T13:14:41.459Z,12.14
2023-01-13T13:17:28.646Z,11.90
2023-01-13T13:19:58.543Z,12.37
2023-01-13T13:22:26.821Z,12.42
2023-01-13T13:24:54.962Z,12.47
2023-01-13T13:27:42.607Z,12.50
2023-01-13T13:30:22.383Z,12.53
2023-01-13T13:33:27.552Z,12.13
2023-01-13T13:36:14.291Z,11.90
2023-01-13T13:39:48.679Z,12.04
2023-01-13T13:42:45.457Z,11.88
2023-01-13T13:45:40.292Z,12.01
2023-01-13T13:48:31.064Z,12.07
2023-01-13T13:51:04.282Z,12.39
2023-01-13T13:53:39.557Z,12.44
2023-01-13T13:56:19.239Z,12.45
2023-01-13T13:58:48.817Z,12.68
2023-01-13T14:01:24.788Z,12.36
2023-01-13T14:04:14.002Z,12.53
2023-01-13T14:06:51.423Z,12.52
2023-01-13T14:09:21.213Z,12.51
2023-01-13T14:12:04.555Z,12.69
2023-01-13T14:14:32.754Z,13.88
2023-01-13T14:17:01.753Z,14.60
2023-01-13T14:19:34.553Z,15.74
2023-01-13T14:22:05.060Z,16.10
2023-01-13T14:24:34.333Z,16.47
2023-01-13T14:27:19.626Z,17.50
2023-01-13T14:29:49.204Z,16.28
2023-01-13T14:32:23.218Z,17.70
2023-01-13T14:34:52.318Z,19.20
2023-01-13T14:37:35.275Z,18.76
2023-01-13T14:40:03.824Z,20.59
2023-01-13T14:42:35.661Z,22.15
2023-01-13T14:45:04.096Z,21.90
2023-01-13T14:47:34.348Z,21.87
2023-01-13T14:50:11.353Z,21.03
2023-01-13T14:52:55.960Z,21.15
2023-01-13T14:55:29.670Z,20.71
2023-01-13T14:58:24.631Z,21.02
2023-01-13T15:01:28.993Z,19.55
2023-01-13T15:04:18.166Z,20.22
2023-01-13T15:06:47.500Z,19.64
2023-01-13T15:09:25.237Z,18.88
2023-01-13T15:11:54.479Z,18.86
2023-01-13T15:14:28.769Z,19.15
2023-01-13T15:16:57.927Z,19.11
2023-01-13T15:19:26.262Z,18.38
2023-01-13T15:21:54.377Z,18.25
2023-01-13T15:24:22.606Z,17.67
2023-01-13T15:26:50.639Z,16.76
2023-01-13T15:29:21.003Z,14.97
2023-01-13T15:31:49.100Z,14.25
2023-01-13T15:34:17.455Z,13.89
2023-01-13T15:36:45.441Z,13.25
2023-01-13T15:39:13.724Z,13.31
2023-01-13T15:42:00.046Z,12.99
2023-01-13T15:44:47.161Z,13.44
2023-01-13T15:47:15.227Z,13.10
2023-01-13T15:49:46.901Z,13.05
2023-01-13T15:52:24.127Z,12.97
2023-01-13T15:54:53.884Z,12.73
2023-01-13T15:57:31.124Z,12.45
2023-01-13T16:00:04.249Z,12.21
2023-01-13T16:02:34.865Z,12.20
2023-01-13T16:05:04.116Z,12.16
2023-01-13T16:07:32.233Z,11.85
2023-01-13T16:10:01.986Z,12.07
2023-01-13T16:12:30.033Z,11.91
2023-01-13T16:14:59.827Z,11.86
2023-01-13T16:17:30.971Z,11.75
2023-01-13T16:20:00.502Z,11.89
2023-01-13T16:22:28.468Z,11.77
2023-01-13T16:24:57.109Z,11.55
2023-01-13T16:27:25.689Z,11.17
2023-01-13T16:29:53.946Z,11.23
2023-01-13T16:32:21.954Z,11.15
2023-01-13T16:34:50.336Z,10.92
2023-01-13T16:37:25.784Z,10.78
2023-01-13T16:39:55.324Z,10.71
2023-01-13T16:42:23.413Z,11.09
2023-01-13T16:44:53.104Z,11.08
2023-01-13T16:47:22.946Z,10.97
2023-01-13T16:49:53.122Z,10.89
2023-01-13T16:52:21.265Z,11.19
2023-01-13T16:54:49.530Z,11.03
2023-01-13T16:57:17.459Z,10.49
2023-01-13T16:59:46.909Z,10.40
2023-01-13T17:02:20.200Z,10.52
2023-01-13T17:04:49.282Z,10.36
2023-01-13T17:07:18.243Z,10.35
2023-01-13T17:09:46.782Z,10.44
2023-01-13T17:12:14.753Z,10.51
2023-01-13T17:14:43.853Z,10.56
2023-01-13T17:17:23.112Z,10.53
2023-01-13T17:19:52.691Z,10.44
2023-01-13T17:22:22.141Z,10.34
2023-01-13T17:24:50.697Z,10.25
2023-01-13T17:27:18.919Z,10.22
2023-01-13T17:29:47.725Z,10.47
2023-01-13T17:32:20.546Z,10.42
2023-01-13T17:34:49.631Z,10.32
2023-01-13T17:37:18.060Z,10.45
2023-01-13T17:39:48.674Z,10.37
2023-01-13T17:42:17.496Z,10.17
2023-01-13T17:44:48.211Z,10.26
2023-01-13T17:47:16.337Z,10.23
2023-01-13T17:49:44.807Z,10.12
2023-01-13T17:52:13.101Z,9.95
2023-01-13T17:54:43.268Z,9.96
2023-01-13T17:57:11.310Z,9.86
2023-01-13T17:59:41.798Z,9.61
2023-01-13T18:02:12.689Z,9.67
2023-01-13T18:04:42.923Z,9.64
2023-01-13T18:07:11.036Z,9.47
2023-01-13T18:09:39.537Z,9.63
2023-01-13T18:12:07.746Z,9.44
2023-01-13T18:14:36.157Z,9.53
2023-01-13T18:17:04.283Z,9.61
2023-01-13T18:19:51.724Z,9.44
2023-01-13T18:22:38.171Z,9.49
2023-01-13T18:25:46.324Z,9.41
2023-01-13T18:28:14.442Z,9.40
2023-01-13T18:30:43.989Z,9.28
2023-01-13T18:33:12.059Z,9.35
2023-01-13T18:35:40.434Z,9.18
2023-01-13T18:38:08.931Z,9.08
2023-01-13T18:40:37.411Z,9.05
2023-01-13T18:43:05.604Z,9.02
2023-01-13T18:45:33.989Z,8.95
2023-01-13T18:48:04.904Z,8.93
2023-01-13T18:50:37.228Z,9.04
2023-01-13T18:53:05.411Z,8.92
2023-01-13T18:55:33.973Z,8.87
2023-01-13T18:58:02.300Z,8.79
2023-01-13T19:00:36.860Z,8.78
2023-01-13T19:05:39.824Z,8.81
2023-01-13T19:08:07.929Z,8.84
2023-01-13T19:10:37.800Z,8.94
2023-01-13T19:13:05.878Z,8.72
2023-01-13T19:15:37.449Z,8.78
2023-01-13T19:18:06.249Z,8.59
2023-01-13T19:20:35.045Z,8.62
2023-01-13T19:23:03.193Z,8.53
2023-01-13T19:25:31.689Z,8.48
2023-01-13T19:27:59.879Z,8.59
2023-01-13T19:30:30.218Z,8.38
2023-01-13T19:32:58.320Z,8.52
2023-01-13T19:35:26.930Z,8.40
2023-01-13T19:37:56.336Z,8.27
2023-01-13T19:40:26.984Z,8.30
2023-01-13T19:43:13.776Z,8.20
2023-01-13T19:45:42.176Z,8.15
2023-01-13T19:48:10.331Z,8.36
2023-01-13T19:50:40.124Z,8.35
2023-01-13T19:53:14.866Z,8.36
2023-01-13T19:55:48.906Z,8.53
2023-01-13T19:58:21.375Z,8.41
2023-01-13T20:00:51.202Z,8.54
2023-01-13T20:03:24.532Z,8.51
2023-01-13T20:05:54.314Z,8.42
2023-01-13T20:08:24.092Z,8.31
2023-01-13T20:11:13.501Z,8.37
2023-01-13T20:13:42.233Z,8.26
2023-01-13T20:16:10.659Z,8.22
2023-01-13T20:18:38.924Z,8.12
2023-01-13T20:21:08.644Z,8.23
2023-01-13T20:23:37.099Z,8.14
2023-01-13T20:26:10.475Z,8.23
2023-01-13T20:28:39.785Z,8.22
2023-01-13T20:31:11.533Z,8.26
2023-01-13T20:33:42.098Z,7.96
2023-01-13T20:36:37.176Z,7.89
2023-01-13T20:39:07.793Z,7.90
2023-01-13T20:41:56.516Z,7.70
2023-01-13T20:44:27.132Z,7.73
2023-01-13T20:47:01.963Z,7.98
2023-01-13T20:49:31.413Z,7.88
2023-01-13T20:52:01.336Z,7.76
2023-01-13T20:54:31.244Z,7.76
2023-01-13T20:57:01.364Z,7.86
2023-01-13T20:59:30.255Z,7.76
2023-01-13T21:02:01.923Z,7.71
2023-01-13T21:04:32.209Z,7.71
2023-01-13T21:07:01.949Z,7.78
2023-01-13T21:09:31.954Z,7.92
2023-01-13T21:12:19.446Z,7.95
2023-01-13T21:15:06.061Z,7.82
2023-01-13T21:17:53.545Z,7.76
2023-01-13T21:20:23.023Z,7.93
2023-01-13T21:22:51.850Z,7.86
2023-01-13T21:25:21.264Z,7.70
2023-01-13T21:27:49.927Z,7.85
2023-01-13T21:30:18.345Z,7.75
2023-01-13T21:32:47.804Z,7.93
2023-01-13T21:35:16.091Z,7.78
2023-01-13T21:37:45.724Z,7.79
2023-01-13T21:40:15.202Z,7.70
2023-01-13T21:43:01.975Z,7.77
2023-01-13T21:45:48.500Z,7.89
2023-01-13T21:48:16.851Z,7.76
2023-01-13T21:50:45.768Z,7.57
2023-01-13T21:53:14.004Z,7.46
2023-01-13T21:55:42.724Z,7.42
2023-01-13T21:58:14.300Z,7.32
2023-01-13T22:00:44.684Z,7.28
2023-01-13T22:03:14.872Z,7.31
2023-01-13T22:05:42.741Z,7.37
2023-01-13T22:08:13.218Z,6.98
2023-01-13T22:11:00.542Z,6.89
2023-01-13T22:13:48.261Z,7.01
2023-01-13T22:16:16.340Z,7.12
2023-01-13T22:18:44.685Z,7.04
2023-01-13T22:21:12.804Z,7.07
2023-01-13T22:23:41.072Z,7.18
2023-01-13T22:26:09.260Z,7.19
2023-01-13T22:28:43.255Z,7.10
2023-01-13T22:31:14.474Z,7.11
2023-01-13T22:33:47.520Z,7.15
2023-01-13T22:36:16.319Z,7.29
2023-01-13T22:38:45.052Z,6.97
2023-01-13T22:41:13.125Z,7.05
2023-01-13T22:43:41.566Z,6.94
2023-01-13T22:46:12.130Z,6.80
2023-01-13T22:48:41.714Z,6.75
2023-01-13T22:51:11.242Z,6.78
2023-01-13T22:53:40.387Z,6.74
2023-01-13T22:56:11.872Z,6.80
2023-01-13T22:58:40.215Z,6.94
2023-01-13T23:01:09.647Z,6.69
2023-01-13T23:03:38.437Z,6.69
2023-01-13T23:06:07.253Z,6.56
2023-01-13T23:08:36.389Z,6.71
2023-01-13T23:11:09.622Z,6.61
2023-01-13T23:13:39.671Z,6.82
2023-01-13T23:16:21.417Z,5.72
2023-01-13T23:18:50.121Z,6.07
2023-01-13T23:21:24.133Z,6.11
2023-01-13T23:23:52.983Z,6.30
2023-01-13T23:26:22.070Z,6.34
2023-01-13T23:28:50.540Z,6.19
2023-01-13T23:31:21.603Z,6.49
2023-01-13T23:33:49.948Z,6.54
2023-01-13T23:36:23.544Z,6.29
2023-01-13T23:38:53.026Z,6.26
2023-01-13T23:41:23.725Z,6.15
2023-01-13T23:44:00.546Z,6.08
2023-01-13T23:46:31.051Z,6.13
2023-01-13T23:48:59.625Z,6.27
2023-01-13T23:51:30.172Z,6.25
2023-01-13T23:53:59.502Z,6.03
2023-01-13T23:56:31.208Z,6.17
2023-01-13T23:58:59.488Z,6.19
